KPT weather

Jackpot Airport/Hayden Field
Jackpot, Nevada, United States

Public forecast

Using degrees Fahrenheit for public forecast. Weather courtesy of forecast.io.

Closest aviation weather report (METAR) to Jackpot Airport/Hayden Field

Closest report is Joslin Field Magic Valley Regional Airport, 31.3 nm (58.0 km) NNE. Retrieved 2020/07/07 22:53 UTC (41 minutes ago):

KTWF 072253Z AUTO 33015KT 10SM CLR 26/03 A2997 RMK AO2 SLP091 T02610033

Closest aviation forecast (TAF) to Jackpot Airport/Hayden Field

Closest forecast is Joslin Field Magic Valley Regional Airport, 31.3 nm (58.0 km) NNE. Retrieved 2020/07/07 18:22 UTC (5 hours ago):

TAF KTWF 071720Z 0718/0818 28015G25KT P6SM SKC FM080300 27007KT P6SM SKC FM080600 20010KT P6SM SKC FM081600 26012KT P6SM SKC